Time;durP1;ratioP1;P1;durP2;ratioP2;P2;SDS_P1;SDS_P2;PMS_P1;PMS_P2;Temp;Humidity;BMP_temperature;BMP_pressure;BME280_temperature;BME280_humidity;BME280_pressure;Samples;Min_cycle;Max_cycle;Signal;HPM_P1;HPM_P2
2023/06/02 00:01:04;;;;;;;8.25;4.82;;;14.50;99.90;;;;;;5075140;28;20020;-80
2023/06/02 00:03:33;;;;;;;11.50;5.90;;;14.40;1.00;;;;;;5078116;28;20041;-83
2023/06/02 00:06:01;;;;;;;8.55;4.55;;;14.30;1.00;;;;;;5048762;28;20107;-82
2023/06/02 00:08:28;;;;;;;8.45;5.07;;;14.30;1.00;;;;;;5046893;28;20044;-83
2023/06/02 00:10:55;;;;;;;9.02;4.60;;;14.30;1.00;;;;;;5067826;28;20028;-80
2023/06/02 00:13:21;;;;;;;7.70;4.68;;;14.10;1.00;;;;;;5065847;28;20044;-82
2023/06/02 00:15:47;;;;;;;8.13;5.22;;;14.00;1.00;;;;;;5062971;28;20028;-82
2023/06/02 00:18:14;;;;;;;7.50;4.78;;;14.00;1.00;;;;;;5064539;28;20480;-80
2023/06/02 00:20:41;;;;;;;7.20;5.22;;;13.90;1.00;;;;;;5047488;28;20033;-82
2023/06/02 00:23:08;;;;;;;11.07;5.03;;;13.80;1.00;;;;;;5063037;28;20025;-81
2023/06/02 00:25:36;;;;;;;11.00;5.35;;;13.70;1.00;;;;;;5064232;28;20036;-80
2023/06/02 00:28:03;;;;;;;7.22;4.97;;;13.60;1.00;;;;;;5044861;28;20048;-80
2023/06/02 00:30:30;;;;;;;9.48;5.30;;;13.50;1.00;;;;;;5041030;28;20398;-80
2023/06/02 00:32:56;;;;;;;12.60;5.22;;;13.40;1.00;;;;;;5038947;28;20041;-82
2023/06/02 00:35:23;;;;;;;10.18;4.90;;;13.40;1.00;;;;;;5067670;28;20028;-80
2023/06/02 00:37:49;;;;;;;12.13;5.60;;;13.30;1.00;;;;;;5065315;28;20044;-81
2023/06/02 00:40:15;;;;;;;10.63;5.50;;;13.20;1.00;;;;;;5048640;28;20041;-86
2023/06/02 00:42:41;;;;;;;10.73;5.63;;;13.10;1.00;;;;;;5078839;28;20090;-80
2023/06/02 00:45:08;;;;;;;8.25;5.80;;;13.10;1.00;;;;;;5087900;28;20401;-81
2023/06/02 00:47:34;;;;;;;9.57;4.80;;;13.00;1.00;;;;;;5083743;28;20054;-82
2023/06/02 00:50:01;;;;;;;7.93;5.35;;;13.00;1.00;;;;;;5087414;28;20063;-81
2023/06/02 00:52:28;;;;;;;6.53;4.68;;;13.00;1.00;;;;;;5090567;28;20047;-80
2023/06/02 00:54:56;;;;;;;10.00;5.85;;;12.90;1.00;;;;;;5086488;28;20036;-79
2023/06/02 00:57:28;;;;;;;9.00;5.85;;;12.80;1.00;;;;;;5088063;28;20036;-82
2023/06/02 00:59:58;;;;;;;8.85;5.22;;;12.80;1.00;;;;;;5090648;28;20052;-78
2023/06/02 01:02:24;;;;;;;6.50;5.13;;;12.70;1.00;;;;;;5086788;28;20032;-81
2023/06/02 01:04:52;;;;;;;7.85;5.07;;;12.70;1.00;;;;;;5083660;28;20043;-80
2023/06/02 01:07:23;;;;;;;9.77;6.20;;;12.60;1.00;;;;;;5058152;28;20753;-79
2023/06/02 01:09:50;;;;;;;;;;;12.60;3.60;;;;;;5081212;28;20035;-83
2023/06/02 01:12:17;;;;;;;9.82;6.15;;;12.50;8.60;;;;;;5089089;28;19908;-81
2023/06/02 01:14:43;;;;;;;9.55;5.03;;;12.50;11.60;;;;;;5088807;28;20047;-83
2023/06/02 01:17:10;;;;;;;11.45;5.88;;;12.50;15.60;;;;;;5088926;28;20032;-83
2023/06/02 01:19:38;;;;;;;6.93;4.90;;;12.40;15.60;;;;;;5088306;28;20032;-85
2023/06/02 01:22:08;;;;;;;8.82;4.80;;;12.40;18.90;;;;;;5088006;28;20040;-83
2023/06/02 01:24:40;;;;;;;8.23;5.50;;;12.30;23.50;;;;;;5091168;28;20028;-84
2023/06/02 01:27:07;;;;;;;10.57;6.40;;;12.30;29.70;;;;;;5099787;28;20047;-82
2023/06/02 01:29:35;;;;;;;7.70;5.18;;;12.30;35.00;;;;;;5086865;28;20036;-83
2023/06/02 01:32:33;;;;;;;8.82;5.20;;;12.30;35.00;;;;;;5085613;28;20040;-82
2023/06/02 01:35:05;;;;;;;9.65;5.70;;;12.20;38.00;;;;;;5086978;28;20040;-82
2023/06/02 01:37:33;;;;;;;8.35;5.15;;;12.10;43.00;;;;;;5090397;28;20040;-83
2023/06/02 01:40:05;;;;;;;10.00;5.20;;;12.10;42.40;;;;;;5085220;28;20044;-80
2023/06/02 01:42:34;;;;;;;9.00;6.28;;;12.10;45.40;;;;;;5074380;28;20044;-80
2023/06/02 01:45:02;;;;;;;10.82;5.88;;;12.00;51.10;;;;;;5088328;28;20047;-81
2023/06/02 01:47:29;;;;;;;7.57;5.32;;;12.00;55.20;;;;;;5094210;28;20036;-80
2023/06/02 01:49:55;;;;;;;8.85;4.93;;;12.00;50.50;;;;;;5086640;28;20047;-79
2023/06/02 01:52:22;;;;;;;8.00;5.03;;;12.00;53.40;;;;;;5090361;28;20032;-81
2023/06/02 01:54:48;;;;;;;7.60;5.35;;;12.00;57.40;;;;;;5090001;28;20035;-81
2023/06/02 01:57:15;;;;;;;9.57;5.57;;;11.90;61.40;;;;;;5086383;28;20051;-82
2023/06/02 01:59:41;;;;;;;8.45;5.28;;;11.90;65.20;;;;;;5089509;28;20049;-82
2023/06/02 02:02:08;;;;;;;8.02;5.35;;;11.80;72.60;;;;;;5086580;28;20033;-82
2023/06/02 02:04:34;;;;;;;7.20;5.20;;;11.80;74.90;;;;;;5087112;28;20028;-81
2023/06/02 02:07:01;;;;;;;8.85;5.05;;;11.70;80.30;;;;;;5087498;28;20041;-80
2023/06/02 02:09:28;;;;;;;7.78;4.15;;;11.70;83.90;;;;;;5086509;28;20036;-79
2023/06/02 02:11:54;;;;;;;14.43;6.45;;;11.60;90.70;;;;;;5103342;28;20036;-81
2023/06/02 02:14:24;;;;;;;8.93;5.35;;;11.60;91.70;;;;;;5079467;28;20031;-83
2023/06/02 02:16:51;;;;;;;12.35;5.63;;;11.60;95.10;;;;;;5087122;28;20035;-83
2023/06/02 02:19:18;;;;;;;8.20;5.28;;;11.50;99.10;;;;;;5087395;28;20055;-83
2023/06/02 02:21:44;;;;;;;8.63;5.40;;;11.50;99.90;;;;;;5087618;28;20046;-81
2023/06/02 02:24:11;;;;;;;9.27;4.93;;;11.40;99.90;;;;;;5086444;28;20044;-83
2023/06/02 02:26:37;;;;;;;7.70;5.43;;;11.40;99.90;;;;;;5088696;28;20507;-81
2023/06/02 02:29:04;;;;;;;10.50;5.45;;;11.40;99.90;;;;;;5081282;28;20040;-79
2023/06/02 02:31:30;;;;;;;7.72;5.25;;;11.30;99.90;;;;;;5084362;28;20032;-81
2023/06/02 02:33:56;;;;;;;8.68;5.57;;;11.30;99.90;;;;;;5089304;28;20028;-82
2023/06/02 02:36:23;;;;;;;8.65;6.25;;;11.30;99.90;;;;;;5091434;28;20036;-84
2023/06/02 02:38:49;;;;;;;8.35;5.07;;;11.30;99.90;;;;;;5090486;28;20048;-83
2023/06/02 02:41:17;;;;;;;7.82;5.25;;;11.30;99.90;;;;;;5083647;28;20032;-81
2023/06/02 02:43:44;;;;;;;6.28;4.65;;;11.20;99.90;;;;;;5087924;28;20040;-84
2023/06/02 02:46:11;;;;;;;9.15;4.88;;;11.20;99.90;;;;;;5086288;28;20044;-83
2023/06/02 02:48:37;;;;;;;8.00;5.03;;;11.20;99.90;;;;;;5075333;28;20039;-84
2023/06/02 02:51:05;;;;;;;7.63;5.70;;;11.20;99.90;;;;;;5068434;28;20040;-83
2023/06/02 02:53:31;;;;;;;8.40;4.93;;;11.10;99.90;;;;;;5096698;28;20043;-81
2023/06/02 02:55:58;;;;;;;7.72;5.35;;;11.10;99.90;;;;;;5091504;28;20053;-79
2023/06/02 02:58:26;;;;;;;7.88;5.35;;;11.10;99.90;;;;;;5105078;28;20050;-79
2023/06/02 03:00:53;;;;;;;9.85;5.40;;;11.10;99.90;;;;;;5102262;28;20499;-81
2023/06/02 03:03:20;;;;;;;6.78;5.10;;;11.10;99.90;;;;;;5089683;28;20031;-76
2023/06/02 03:05:49;;;;;;;8.73;6.65;;;11.10;99.90;;;;;;5085357;28;20378;-79
2023/06/02 03:08:17;;;;;;;8.95;4.95;;;11.10;99.90;;;;;;5085310;28;20041;-81
2023/06/02 03:10:45;;;;;;;8.30;5.72;;;11.00;99.90;;;;;;5098226;28;20040;-81
2023/06/02 03:13:12;;;;;;;7.25;4.93;;;11.00;99.90;;;;;;5087362;28;20035;-81
2023/06/02 03:15:39;;;;;;;9.63;5.30;;;11.00;99.90;;;;;;5082851;28;20041;-81
2023/06/02 03:18:06;;;;;;;7.53;4.32;;;11.00;99.90;;;;;;5083691;28;20393;-81
2023/06/02 03:20:32;;;;;;;7.28;5.35;;;10.90;99.90;;;;;;5082571;28;20052;-81
2023/06/02 03:22:59;;;;;;;10.18;5.18;;;10.90;99.90;;;;;;5081295;28;20409;-80
2023/06/02 03:25:26;;;;;;;8.68;4.95;;;10.80;99.90;;;;;;5082901;28;20043;-82
2023/06/02 03:27:54;;;;;;;13.68;5.97;;;10.80;99.90;;;;;;5088697;28;20370;-80
2023/06/02 03:30:23;;;;;;;9.20;5.57;;;10.80;99.90;;;;;;5066930;28;20044;-82
2023/06/02 03:32:52;;;;;;;8.82;5.60;;;10.80;99.90;;;;;;5083435;28;20389;-82
2023/06/02 03:35:18;;;;;;;8.23;5.60;;;10.80;99.90;;;;;;5080209;28;20355;-82
2023/06/02 03:37:44;;;;;;;7.82;5.07;;;10.80;99.90;;;;;;5083688;28;20469;-82
2023/06/02 03:40:11;;;;;;;7.53;5.43;;;10.70;99.90;;;;;;5082847;28;20128;-82
2023/06/02 03:42:39;;;;;;;8.38;5.57;;;10.70;99.90;;;;;;5086613;28;20044;-81
2023/06/02 03:45:08;;;;;;;7.95;5.40;;;10.70;99.90;;;;;;5085096;28;20039;-80
2023/06/02 03:47:34;;;;;;;9.57;5.63;;;10.60;99.90;;;;;;5062794;28;20039;-81
2023/06/02 03:50:00;;;;;;;7.30;5.07;;;10.60;99.90;;;;;;5081606;28;20099;-78
2023/06/02 03:52:30;;;;;;;10.50;5.25;;;10.70;99.90;;;;;;5081084;28;20051;-78
2023/06/02 03:54:58;;;;;;;11.02;5.85;;;10.70;99.90;;;;;;5097347;28;20458;-78
2023/06/02 03:57:25;;;;;;;8.93;5.43;;;10.70;99.90;;;;;;5085347;28;20036;-75
2023/06/02 03:59:51;;;;;;;12.13;6.18;;;10.70;99.90;;;;;;5085839;28;20052;-77
2023/06/02 04:02:18;;;;;;;8.43;6.22;;;10.70;99.90;;;;;;5086131;28;20346;-78
2023/06/02 04:04:45;;;;;;;10.73;6.38;;;10.70;99.90;;;;;;5087094;28;20040;-79
2023/06/02 04:07:12;;;;;;;11.43;5.82;;;10.70;99.90;;;;;;5078051;28;20130;-78
2023/06/02 04:09:38;;;;;;;9.93;5.30;;;10.70;99.90;;;;;;5080520;28;20047;-78
2023/06/02 04:12:05;;;;;;;11.57;5.40;;;10.80;99.90;;;;;;5078796;28;20039;-77
2023/06/02 04:14:34;;;;;;;9.80;5.00;;;10.80;99.90;;;;;;5081391;28;20469;-78
2023/06/02 04:17:00;;;;;;;9.93;7.05;;;10.80;99.90;;;;;;5086829;28;20036;-78
2023/06/02 04:19:27;;;;;;;9.75;5.90;;;10.80;99.90;;;;;;5088405;28;20044;-77
2023/06/02 04:21:53;;;;;;;7.95;5.07;;;11.00;99.90;;;;;;5067239;28;20362;-77
2023/06/02 04:24:20;;;;;;;8.25;5.25;;;11.60;88.10;;;;;;5061355;28;20041;-78
2023/06/02 04:26:46;;;;;;;7.28;5.03;;;11.90;55.70;;;;;;5088528;28;20040;-79
2023/06/02 04:29:13;;;;;;;10.68;5.85;;;11.90;36.30;;;;;;5092992;28;20052;-78
2023/06/02 04:31:43;;;;;;;7.25;5.32;;;11.80;52.70;;;;;;5093143;28;20036;-78
2023/06/02 04:34:12;;;;;;;7.15;4.55;;;12.30;35.20;;;;;;5068888;28;20051;-78
2023/06/02 04:36:40;;;;;;;8.02;5.60;;;12.80;1.00;;;;;;5086926;28;20047;-79
2023/06/02 04:39:07;;;;;;;8.90;5.45;;;12.80;1.00;;;;;;5088908;28;20051;-78
2023/06/02 04:41:36;;;;;;;6.28;4.68;;;13.10;1.00;;;;;;5085390;28;20466;-79
2023/06/02 04:44:03;;;;;;;6.13;4.60;;;13.30;1.00;;;;;;5067802;28;20409;-79
2023/06/02 04:46:29;;;;;;;9.27;6.20;;;13.50;1.00;;;;;;5068944;28;20024;-78
2023/06/02 04:48:56;;;;;;;10.52;5.45;;;13.60;1.00;;;;;;5054451;28;20051;-78
2023/06/02 04:51:29;;;;;;;7.82;5.68;;;13.60;1.00;;;;;;5070140;28;20453;-78
2023/06/02 04:53:56;;;;;;;8.80;4.55;;;13.50;1.00;;;;;;5062709;28;20481;-79
2023/06/02 04:56:27;;;;;;;10.23;5.22;;;13.30;1.00;;;;;;5032685;28;20040;-80
2023/06/02 04:58:54;;;;;;;7.57;5.10;;;13.10;1.00;;;;;;5053954;28;20036;-80
2023/06/02 05:01:21;;;;;;;11.85;7.00;;;13.40;1.00;;;;;;5039772;28;20393;-78
2023/06/02 05:03:48;;;;;;;9.82;4.43;;;13.40;1.00;;;;;;5047360;28;20043;-80
2023/06/02 05:06:16;;;;;;;9.65;5.43;;;13.30;1.00;;;;;;5058944;28;20036;-77
2023/06/02 05:08:42;;;;;;;8.07;5.43;;;13.60;1.00;;;;;;5039243;28;20047;-77
2023/06/02 05:11:08;;;;;;;7.30;4.85;;;13.10;1.00;;;;;;5055856;28;20036;-78
2023/06/02 05:13:35;;;;;;;8.43;4.93;;;13.60;1.00;;;;;;5049358;28;20040;-78
2023/06/02 05:16:02;;;;;;;7.20;4.47;;;13.80;1.00;;;;;;5066187;28;20040;-77
2023/06/02 05:18:29;;;;;;;7.47;4.22;;;14.30;1.00;;;;;;5053167;28;20040;-79
2023/06/02 05:20:55;;;;;;;8.38;4.50;;;14.30;1.00;;;;;;5054621;28;20498;-78
2023/06/02 05:23:22;;;;;;;10.18;4.78;;;14.10;1.00;;;;;;5052062;28;20067;-77
2023/06/02 05:25:49;;;;;;;7.03;4.25;;;13.70;1.00;;;;;;5067681;28;20028;-76
2023/06/02 05:28:16;;;;;;;7.80;5.72;;;13.70;1.00;;;;;;5067918;28;20031;-78
2023/06/02 05:30:43;;;;;;;7.28;4.40;;;13.70;1.00;;;;;;5050583;28;20052;-81
2023/06/02 05:33:10;;;;;;;8.43;4.85;;;13.60;1.00;;;;;;5041040;28;20045;-77
2023/06/02 05:35:37;;;;;;;8.13;4.70;;;13.60;1.00;;;;;;5038070;28;20048;-80
2023/06/02 05:38:04;;;;;;;8.15;4.88;;;13.70;1.00;;;;;;5068644;28;20099;-79
2023/06/02 05:40:32;;;;;;;6.63;4.35;;;14.10;1.00;;;;;;5050818;28;20477;-81
2023/06/02 05:42:59;;;;;;;11.10;4.28;;;14.50;1.00;;;;;;5066795;28;20037;-77
2023/06/02 05:45:25;;;;;;;10.68;5.20;;;14.30;1.00;;;;;;5068971;28;20475;-80
2023/06/02 05:47:52;;;;;;;7.13;4.30;;;14.20;1.00;;;;;;5039829;28;20048;-79
2023/06/02 05:50:20;;;;;;;6.88;4.88;;;14.10;1.00;;;;;;5043140;28;20048;-81
2023/06/02 05:52:46;;;;;;;7.00;4.15;;;14.40;1.00;;;;;;5045660;28;20075;-76
2023/06/02 05:55:12;;;;;;;11.50;6.35;;;14.50;1.00;;;;;;5065099;28;20028;-78
2023/06/02 05:57:40;;;;;;;6.63;3.97;;;14.30;1.00;;;;;;5052312;28;20040;-83
2023/06/02 06:00:09;;;;;;;7.97;5.00;;;14.80;1.00;;;;;;5051015;28;20474;-78
2023/06/02 06:02:41;;;;;;;7.53;4.13;;;14.90;99.90;;;;;;5062594;28;20051;-78
2023/06/02 06:05:13;;;;;;;9.27;4.97;;;14.20;1.00;;;;;;5053868;28;20044;-79
2023/06/02 06:07:40;;;;;;;7.03;4.20;;;14.50;1.00;;;;;;5049700;28;20041;-75
2023/06/02 06:10:06;;;;;;;6.65;4.20;;;14.70;99.90;;;;;;5065234;28;20056;-83
2023/06/02 06:12:32;;;;;;;8.98;4.55;;;14.90;99.90;;;;;;5047087;28;20040;-79
2023/06/02 06:14:59;;;;;;;5.93;3.50;;;14.90;99.90;;;;;;5054478;28;20037;-77
2023/06/02 06:17:25;;;;;;;9.45;4.47;;;15.30;99.90;;;;;;5046044;28;20036;-80
2023/06/02 06:19:51;;;;;;;6.32;3.75;;;15.50;99.90;;;;;;5054855;28;20041;-81
2023/06/02 06:22:17;;;;;;;8.30;4.53;;;15.40;99.90;;;;;;5046549;28;20047;-80
2023/06/02 06:24:44;;;;;;;7.20;4.40;;;15.10;99.90;;;;;;5068479;28;20033;-80
2023/06/02 06:27:11;;;;;;;9.35;4.70;;;15.30;99.90;;;;;;5050213;28;20041;-80
2023/06/02 06:29:37;;;;;;;10.05;4.60;;;14.90;99.90;;;;;;5034332;28;20048;-77
2023/06/02 06:32:06;;;;;;;7.00;4.13;;;14.90;99.90;;;;;;5049396;28;20045;-78
2023/06/02 06:34:32;;;;;;;23.67;5.45;;;14.60;99.90;;;;;;5064498;28;20043;-80
2023/06/02 06:36:59;;;;;;;8.52;5.40;;;14.60;99.90;;;;;;5066344;28;20028;-82
2023/06/02 06:39:26;;;;;;;9.00;5.00;;;14.80;99.90;;;;;;5047477;28;20107;-79
2023/06/02 06:41:53;;;;;;;8.60;3.80;;;15.20;99.90;;;;;;5059954;28;20040;-83
2023/06/02 06:44:27;;;;;;;6.18;3.63;;;15.50;99.90;;;;;;5088111;28;20049;-78
2023/06/02 06:46:53;;;;;;;9.63;4.05;;;15.70;99.90;;;;;;5080671;28;20032;-80
2023/06/02 06:49:20;;;;;;;9.80;3.88;;;15.60;99.90;;;;;;5084460;28;20052;-79
2023/06/02 06:51:46;;;;;;;8.02;4.38;;;15.50;99.90;;;;;;5083120;28;20044;-80
2023/06/02 06:54:15;;;;;;;8.45;4.65;;;16.10;99.90;;;;;;5084025;28;20036;-80
2023/06/02 06:56:43;;;;;;;7.45;4.35;;;16.00;99.90;;;;;;5083394;28;20039;-81
2023/06/02 06:59:10;;;;;;;8.90;4.53;;;16.30;99.90;;;;;;5086697;28;20039;-80
2023/06/02 07:01:37;;;;;;;6.25;4.15;;;16.10;99.90;;;;;;5102298;28;20398;-81
2023/06/02 07:04:03;;;;;;;7.55;3.50;;;16.50;99.90;;;;;;5087680;28;20389;-82
2023/06/02 07:06:34;;;;;;;9.02;4.38;;;16.10;99.90;;;;;;5093663;28;20039;-82
2023/06/02 07:09:01;;;;;;;8.32;4.55;;;15.80;99.90;;;;;;5088710;28;20051;-79
2023/06/02 07:11:28;;;;;;;9.40;5.00;;;16.20;99.90;;;;;;5085657;28;20044;-82
2023/06/02 07:13:54;;;;;;;7.35;4.13;;;16.20;99.90;;;;;;5082821;28;20491;-81
2023/06/02 07:16:21;;;;;;;10.35;4.90;;;16.70;99.90;;;;;;5088580;28;20039;-82
2023/06/02 07:18:48;;;;;;;9.02;4.63;;;16.30;99.90;;;;;;5086983;28;20043;-83
2023/06/02 07:21:14;;;;;;;9.27;4.95;;;16.20;99.90;;;;;;5089159;28;20142;-81
2023/06/02 07:23:40;;;;;;;7.15;4.22;;;15.60;99.90;;;;;;5085232;28;20040;-82
2023/06/02 07:26:06;;;;;;;9.38;4.90;;;15.80;99.90;;;;;;5082688;28;20044;-79
2023/06/02 07:28:35;;;;;;;8.35;4.72;;;16.20;99.90;;;;;;5083923;28;20028;-84
2023/06/02 07:31:02;;;;;;;7.80;4.53;;;16.00;99.90;;;;;;5083909;28;20051;-80
2023/06/02 07:33:28;;;;;;;14.45;4.70;;;15.70;99.90;;;;;;5084534;28;20044;-78
2023/06/02 07:35:55;;;;;;;7.93;4.88;;;15.80;99.90;;;;;;5086427;28;20040;-79
2023/06/02 07:38:21;;;;;;;11.43;4.78;;;15.80;99.90;;;;;;5085921;28;20035;-80
2023/06/02 07:40:47;;;;;;;9.85;5.18;;;15.70;99.90;;;;;;5088916;28;20032;-80
2023/06/02 07:43:13;;;;;;;11.50;5.25;;;16.00;99.90;;;;;;5063622;28;20043;-81
2023/06/02 07:45:39;;;;;;;10.38;4.55;;;16.50;99.90;;;;;;5049743;28;20028;-80
2023/06/02 07:48:05;;;;;;;7.70;4.32;;;16.10;99.90;;;;;;5062528;28;20033;-83
2023/06/02 07:50:32;;;;;;;13.50;5.07;;;16.30;99.90;;;;;;5067459;28;20058;-76
2023/06/02 07:52:58;;;;;;;10.05;4.65;;;16.10;99.90;;;;;;5061308;28;20039;-79
2023/06/02 07:55:25;;;;;;;6.50;4.93;;;16.10;99.90;;;;;;5065345;28;20036;-79
2023/06/02 07:57:51;;;;;;;8.25;4.85;;;15.90;99.90;;;;;;5061955;28;20480;-79
2023/06/02 08:00:21;;;;;;;7.80;4.80;;;16.00;99.90;;;;;;5062116;28;20033;-79
2023/06/02 08:02:47;;;;;;;7.10;4.05;;;16.60;99.90;;;;;;5046538;28;20085;-81
2023/06/02 08:05:14;;;;;;;9.30;4.45;;;16.60;99.90;;;;;;5063803;28;20036;-79
2023/06/02 08:07:40;;;;;;;9.38;4.55;;;16.90;99.90;;;;;;5063689;28;20029;-80
2023/06/02 08:10:07;;;;;;;9.85;4.70;;;16.50;99.90;;;;;;5051961;28;20049;-79
2023/06/02 08:12:34;;;;;;;9.18;4.65;;;16.50;99.90;;;;;;5066319;28;20032;-78
2023/06/02 08:15:01;;;;;;;8.40;4.20;;;18.30;99.90;;;;;;5062039;28;20442;-85
2023/06/02 08:17:30;;;;;;;8.68;4.05;;;17.80;99.90;;;;;;5046113;28;20045;-79
2023/06/02 08:19:58;;;;;;;9.65;5.50;;;17.30;99.90;;;;;;5065829;28;20089;-80
2023/06/02 08:22:27;;;;;;;9.85;4.93;;;16.90;99.90;;;;;;5047586;28;20048;-83
2023/06/02 08:24:56;;;;;;;9.60;4.63;;;17.10;99.90;;;;;;5047161;28;20060;-81
2023/06/02 08:27:23;;;;;;;10.43;4.70;;;17.20;99.90;;;;;;5045309;28;20033;-84
2023/06/02 08:29:51;;;;;;;11.38;4.25;;;17.80;99.90;;;;;;5065928;28;20043;-80
2023/06/02 08:32:24;;;;;;;7.35;4.25;;;18.40;99.90;;;;;;5066324;28;20036;-85
2023/06/02 08:34:51;;;;;;;6.90;4.50;;;18.70;99.90;;;;;;5046636;28;20043;-83
2023/06/02 08:37:18;;;;;;;8.95;3.70;;;18.50;99.90;;;;;;5059765;28;20024;-79
2023/06/02 08:39:45;;;;;;;9.90;4.72;;;18.60;99.90;;;;;;5064690;28;20059;-81
2023/06/02 08:42:12;;;;;;;6.68;4.75;;;18.50;99.90;;;;;;5085080;28;20047;-82
2023/06/02 08:44:40;;;;;;;7.63;4.03;;;17.60;99.90;;;;;;5083554;28;20035;-79
2023/06/02 08:47:10;;;;;;;10.75;4.90;;;17.90;99.90;;;;;;5079335;28;20020;-87
2023/06/02 08:49:42;;;;;;;10.75;4.03;;;18.10;99.90;;;;;;5083152;28;20051;-82
2023/06/02 08:52:15;;;;;;;8.98;4.60;;;17.90;99.90;;;;;;5082063;28;20055;-85
2023/06/02 08:54:42;;;;;;;8.27;4.10;;;17.80;99.90;;;;;;5082437;28;20028;-83
2023/06/02 08:57:12;;;;;;;6.28;4.22;;;18.20;99.90;;;;;;5078941;28;20040;-81
2023/06/02 08:59:39;;;;;;;8.93;4.47;;;18.50;99.90;;;;;;5063860;28;20139;-83
2023/06/02 09:02:06;;;;;;;7.88;4.38;;;18.20;99.90;;;;;;5082093;28;20028;-82
2023/06/02 09:04:33;;;;;;;9.32;5.13;;;18.10;99.90;;;;;;5094349;28;20039;-82
2023/06/02 09:07:15;;;;;;;6.05;3.88;;;18.10;99.90;;;;;;5080626;28;20393;-82
2023/06/02 09:09:46;;;;;;;9.00;4.15;;;18.00;99.90;;;;;;5083622;28;20024;-80
2023/06/02 09:12:13;;;;;;;7.07;3.88;;;18.50;99.90;;;;;;5070026;28;20035;-87
2023/06/02 09:14:39;;;;;;;10.32;4.20;;;18.40;99.90;;;;;;5083999;28;20055;-81
2023/06/02 09:17:38;;;;;;;8.90;4.50;;;17.80;99.90;;;;;;5087739;28;20032;-81
2023/06/02 09:20:11;;;;;;;7.30;4.40;;;18.30;99.90;;;;;;5041836;28;20052;-76
2023/06/02 09:22:57;;;;;;;6.22;4.55;;;18.10;99.90;;;;;;5089812;28;20044;-78
2023/06/02 09:25:28;;;;;;;8.50;4.47;;;18.20;99.90;;;;;;5088744;28;20028;-82
2023/06/02 09:27:59;;;;;;;8.27;4.38;;;18.70;99.90;;;;;;5092030;28;20040;-80
2023/06/02 09:30:26;;;;;;;10.13;4.80;;;19.30;99.90;;;;;;5088629;28;20036;-84
2023/06/02 09:33:00;;;;;;;9.13;4.32;;;18.40;99.90;;;;;;5090098;28;20032;-86
2023/06/02 09:35:42;;;;;;;6.88;3.83;;;18.10;99.90;;;;;;5085145;28;20028;-82
2023/06/02 09:38:16;;;;;;;11.25;4.72;;;18.40;99.90;;;;;;5088184;28;20036;-86
2023/06/02 09:40:44;;;;;;;7.68;3.78;;;19.20;99.90;;;;;;5083156;28;20382;-81
2023/06/02 09:43:12;;;;;;;8.50;4.60;;;18.60;99.90;;;;;;5088638;28;20044;-79
2023/06/02 09:45:47;;;;;;;11.02;4.93;;;18.60;99.90;;;;;;5084611;28;20028;-81
2023/06/02 09:48:22;;;;;;;8.48;4.88;;;18.60;99.90;;;;;;5091499;28;20048;-79
2023/06/02 09:50:49;;;;;;;9.82;4.90;;;18.90;99.90;;;;;;5069867;28;20060;-81
2023/06/02 09:53:17;;;;;;;8.05;3.85;;;18.80;99.90;;;;;;5094002;28;20044;-80
2023/06/02 09:55:45;;;;;;;5.85;3.90;;;19.00;99.90;;;;;;5087219;28;20539;-82
2023/06/02 09:58:12;;;;;;;8.25;4.68;;;18.60;99.90;;;;;;5088987;28;20036;-81
2023/06/02 10:00:39;;;;;;;9.75;3.78;;;18.80;99.90;;;;;;5071721;28;20489;-80
2023/06/02 10:03:06;;;;;;;8.93;3.33;;;19.00;99.90;;;;;;5082531;28;20044;-80
2023/06/02 10:05:33;;;;;;;7.05;3.97;;;19.50;99.90;;;;;;5063819;28;20040;-82
2023/06/02 10:08:20;;;;;;;7.53;3.85;;;19.40;99.90;;;;;;5066024;28;20036;-81
2023/06/02 10:11:07;;;;;;;7.07;3.83;;;19.70;99.90;;;;;;5078776;28;20436;-81
2023/06/02 10:14:01;;;;;;;11.70;4.30;;;19.70;99.90;;;;;;5086380;28;20051;-80
2023/06/02 10:16:54;;;;;;;17.50;6.68;;;18.70;99.90;;;;;;5085164;28;20455;-83
2023/06/02 10:19:20;;;;;;;9.50;4.22;;;18.90;99.90;;;;;;5082732;28;20106;-85
2023/06/02 10:22:11;;;;;;;9.85;4.32;;;19.10;99.90;;;;;;5084441;28;20040;-80
2023/06/02 10:25:07;;;;;;;9.90;4.57;;;19.20;99.90;;;;;;5082130;28;20032;-87
2023/06/02 10:27:39;;;;;;;6.28;3.97;;;19.30;99.90;;;;;;5029671;28;20529;-83
2023/06/02 10:30:06;;;;;;;6.35;3.97;;;19.70;99.90;;;;;;5089429;28;20067;-81
2023/06/02 10:32:43;;;;;;;8.90;4.38;;;19.20;99.90;;;;;;5067785;28;20040;-81
2023/06/02 10:35:09;;;;;;;7.28;3.67;;;18.80;99.90;;;;;;5085856;28;20036;-86
2023/06/02 10:37:37;;;;;;;7.70;3.70;;;19.20;99.90;;;;;;5082706;28;20032;-81
2023/06/02 10:40:04;;;;;;;8.45;3.90;;;19.80;99.90;;;;;;5103769;28;20512;-81
2023/06/02 10:42:31;;;;;;;7.07;3.33;;;19.60;99.90;;;;;;5067066;28;20043;-80
2023/06/02 10:45:26;;;;;;;8.70;4.25;;;19.20;99.90;;;;;;5087365;28;20043;-79
2023/06/02 10:47:53;;;;;;;10.13;3.53;;;18.90;99.90;;;;;;5085099;28;20040;-83
2023/06/02 10:50:24;;;;;;;5.20;3.08;;;18.90;99.90;;;;;;5094544;28;20032;-79
2023/06/02 10:53:00;;;;;;;7.68;4.55;;;19.00;99.90;;;;;;5080048;28;20036;-77
2023/06/02 10:55:33;;;;;;;5.78;3.70;;;18.80;99.90;;;;;;5081469;28;20035;-79
2023/06/02 10:58:03;;;;;;;6.30;2.80;;;19.20;99.90;;;;;;5080607;28;20147;-82
2023/06/02 11:00:32;;;;;;;4.05;2.75;;;19.50;99.90;;;;;;5086249;28;20054;-81
2023/06/02 11:02:59;;;;;;;11.05;3.75;;;19.60;99.90;;;;;;5092247;28;20024;-82
2023/06/02 11:05:27;;;;;;;9.52;3.30;;;19.50;99.90;;;;;;5088638;28;20040;-78
2023/06/02 11:08:11;;;;;;;8.23;4.00;;;19.30;99.90;;;;;;5088104;28;20036;-82
2023/06/02 11:10:48;;;;;;;6.43;3.20;;;18.90;99.90;;;;;;5086403;28;20032;-81
2023/06/02 11:13:19;;;;;;;7.15;3.60;;;19.60;99.90;;;;;;5081242;28;20037;-77
2023/06/02 11:15:55;;;;;;;7.88;2.78;;;19.50;99.90;;;;;;5082690;28;20036;-84
2023/06/02 11:18:31;;;;;;;9.52;3.40;;;19.60;99.90;;;;;;5085457;28;20033;-79
2023/06/02 11:21:20;;;;;;;6.35;3.08;;;19.60;99.90;;;;;;5089075;28;20040;-80
2023/06/02 11:23:46;;;;;;;4.63;2.47;;;19.50;99.90;;;;;;5073608;28;20045;-80
2023/06/02 11:26:21;;;;;;;5.88;2.60;;;19.90;99.90;;;;;;5079410;28;20064;-82
2023/06/02 11:28:47;;;;;;;9.70;3.20;;;20.10;99.90;;;;;;5081741;28;20043;-82
2023/06/02 11:31:17;;;;;;;8.68;2.40;;;20.30;99.90;;;;;;5101126;28;20043;-80
2023/06/02 11:33:49;;;;;;;6.45;3.10;;;20.20;99.90;;;;;;5087050;28;20032;-84
2023/06/02 11:36:17;;;;;;;7.15;3.10;;;20.10;99.90;;;;;;5081716;28;20448;-76
2023/06/02 11:38:43;;;;;;;4.28;2.72;;;19.60;99.90;;;;;;5087538;28;20047;-81
2023/06/02 11:41:11;;;;;;;3.38;2.00;;;19.80;99.90;;;;;;5081410;28;20405;-81
2023/06/02 11:43:42;;;;;;;6.55;2.50;;;20.50;99.90;;;;;;5050443;28;20044;-82
2023/06/02 11:46:12;;;;;;;6.97;3.30;;;20.40;99.90;;;;;;5048165;28;20045;-85
2023/06/02 11:48:40;;;;;;;6.93;3.38;;;20.30;99.90;;;;;;5065530;28;20032;-78
2023/06/02 11:51:15;;;;;;;4.97;2.72;;;19.90;99.90;;;;;;5064246;28;20048;-75
2023/06/02 11:53:45;;;;;;;4.05;2.50;;;20.40;99.90;;;;;;5067671;28;20108;-82
2023/06/02 11:56:12;;;;;;;4.63;2.05;;;20.90;99.90;;;;;;5047728;28;20037;-84
2023/06/02 11:58:43;;;;;;;3.20;2.42;;;21.10;99.90;;;;;;5053805;28;20028;-87
2023/06/02 12:01:14;;;;;;;6.13;2.35;;;20.90;99.90;;;;;;5045438;28;20044;-80
2023/06/02 12:04:02;;;;;;;6.63;2.75;;;20.50;99.90;;;;;;5065844;28;20040;-86
2023/06/02 12:06:29;;;;;;;5.20;2.63;;;20.60;99.90;;;;;;5063387;28;20044;-84
2023/06/02 12:08:55;;;;;;;5.03;2.03;;;20.60;99.90;;;;;;5066644;28;20028;-83
2023/06/02 12:11:23;;;;;;;2.75;1.65;;;20.80;99.90;;;;;;5063860;28;20386;-82
2023/06/02 12:14:04;;;;;;;4.15;2.78;;;21.10;99.90;;;;;;5058302;28;20051;-80
2023/06/02 12:16:31;;;;;;;4.28;2.40;;;21.10;99.90;;;;;;5068917;28;20028;-80
2023/06/02 12:19:20;;;;;;;5.05;2.15;;;21.00;99.90;;;;;;5066730;28;20032;-83
2023/06/02 12:21:54;;;;;;;3.78;2.63;;;20.60;99.90;;;;;;5058513;28;20037;-80
2023/06/02 12:24:39;;;;;;;3.13;1.73;;;21.00;99.90;;;;;;5068957;28;20044;-85
2023/06/02 12:27:10;;;;;;;7.13;3.28;;;20.70;99.90;;;;;;5063519;28;20040;-78
2023/06/02 12:29:36;;;;;;;3.95;2.22;;;20.90;99.90;;;;;;5064349;28;20040;-77
2023/06/02 12:32:05;;;;;;;3.35;2.20;;;21.10;99.90;;;;;;5046227;28;20059;-82
2023/06/02 12:34:32;;;;;;;3.97;2.35;;;20.90;99.90;;;;;;5064665;28;20037;-84
2023/06/02 12:36:59;;;;;;;5.90;2.15;;;21.00;99.90;;;;;;5061087;28;20029;-83
2023/06/02 12:39:25;;;;;;;6.40;2.28;;;21.10;99.90;;;;;;5063305;28;20048;-87
2023/06/02 12:41:52;;;;;;;3.17;1.88;;;21.20;99.90;;;;;;5059987;28;20045;-87
2023/06/02 12:44:18;;;;;;;4.93;2.97;;;21.10;99.90;;;;;;5083384;28;20024;-80
2023/06/02 12:46:45;;;;;;;5.68;2.33;;;21.10;99.90;;;;;;5088805;28;20477;-84
2023/06/02 12:49:12;;;;;;;7.85;3.00;;;21.40;99.90;;;;;;5097773;28;20404;-82
2023/06/02 12:51:38;;;;;;;5.68;2.67;;;21.70;99.90;;;;;;5089482;28;20047;-79
2023/06/02 12:54:05;;;;;;;7.40;2.42;;;22.20;99.90;;;;;;5087875;28;20035;-82
2023/06/02 12:56:31;;;;;;;4.75;2.15;;;22.00;99.90;;;;;;5084377;28;20477;-81